Time;durP1;ratioP1;P1;durP2;ratioP2;P2;SDS_P1;SDS_P2;PMS_P1;PMS_P2;Temp;Humidity;BMP_temperature;BMP_pressure;BME280_temperature;BME280_humidity;BME280_pressure;Samples;Min_cycle;Max_cycle;Signal;HPM_P1;HPM_P2
2021/03/26 00:00:34;;;;;;;;;;;19.60;53.30;;;;;;5016363;28;1129;-68
2021/03/26 00:02:59;;;;;;;;;;;19.60;53.30;;;;;;5016089;28;1065;-68
2021/03/26 00:05:25;;;;;;;;;;;19.60;53.30;;;;;;5032605;28;1386;-68
2021/03/26 00:07:50;;;;;;;;;;;19.50;53.30;;;;;;5032727;28;1069;-68
2021/03/26 00:10:16;;;;;;;;;;;19.50;53.30;;;;;;5033549;28;1135;-68
2021/03/26 00:12:41;;;;;;;;;;;19.50;53.30;;;;;;5033674;28;1140;-67
2021/03/26 00:15:07;;;;;;;;;;;19.50;53.30;;;;;;5033303;28;1402;-67
2021/03/26 00:17:33;;;;;;;;;;;19.50;53.40;;;;;;5032845;28;1918;-68
2021/03/26 00:19:59;;;;;;;;;;;19.50;53.40;;;;;;5015843;28;1532;-69
2021/03/26 00:22:25;;;;;;;;;;;19.50;53.60;;;;;;5033155;28;1293;-68
2021/03/26 00:24:50;;;;;;;;;;;19.50;53.40;;;;;;5033163;28;1392;-68
2021/03/26 00:27:16;;;;;;;;;;;19.50;53.40;;;;;;5032737;28;1120;-68
2021/03/26 00:29:41;;;;;;;;;;;19.50;53.50;;;;;;5031940;28;1352;-68
2021/03/26 00:32:07;;;;;;;;;;;19.50;53.50;;;;;;5033187;28;1116;-67
2021/03/26 00:34:32;;;;;;;;;;;19.50;53.50;;;;;;5032965;28;1351;-68
2021/03/26 00:36:58;;;;;;;;;;;19.50;53.50;;;;;;5032978;28;1965;-67
2021/03/26 00:39:23;;;;;;;;;;;19.50;53.50;;;;;;5032273;28;1092;-67
2021/03/26 00:41:49;;;;;;;;;;;19.50;53.60;;;;;;5032992;28;1344;-68
2021/03/26 00:44:14;;;;;;;;;;;19.50;53.60;;;;;;5033066;28;1133;-67
2021/03/26 00:46:41;;;;;;;;;;;19.50;53.60;;;;;;5032878;28;1175;-67
2021/03/26 00:49:06;;;;;;;;;;;19.50;53.60;;;;;;5014514;28;1342;-67
2021/03/26 00:51:32;;;;;;;;;;;19.50;53.60;;;;;;5014836;28;1067;-68
2021/03/26 00:53:57;;;;;;;;;;;19.40;53.60;;;;;;5032814;28;1187;-68
2021/03/26 00:56:23;;;;;;;;;;;19.40;53.60;;;;;;5033139;28;1954;-67
2021/03/26 00:58:48;;;;;;;;;;;19.40;53.60;;;;;;5031628;28;1356;-68
2021/03/26 01:01:14;;;;;;;;;;;19.40;53.60;;;;;;5014786;28;1093;-68
2021/03/26 01:03:39;;;;;;;;;;;19.40;53.70;;;;;;5032769;28;1113;-67
2021/03/26 01:06:06;;;;;;;;;;;19.40;53.70;;;;;;5049278;23;2261;-66
2021/03/26 01:08:31;;;;;;;;;;;19.40;53.70;;;;;;5013466;28;1195;-66
2021/03/26 01:10:59;;;;;;;;;;;19.40;53.70;;;;;;5015482;28;1152;-66
2021/03/26 01:13:24;;;;;;;;;;;19.40;53.70;;;;;;5015462;28;1335;-67
2021/03/26 01:15:50;;;;;;;;;;;19.40;53.70;;;;;;5032561;28;1887;-66
2021/03/26 01:18:26;;;;;;;;;;;19.40;53.70;;;;;;5015020;28;1368;-67
2021/03/26 01:20:51;;;;;;;;;;;19.40;53.80;;;;;;5015702;28;1348;-66
2021/03/26 01:23:17;;;;;;;;;;;19.40;53.80;;;;;;5014953;28;1332;-67
2021/03/26 01:25:42;;;;;;;;;;;19.40;53.80;;;;;;5032901;28;1312;-66
2021/03/26 01:28:09;;;;;;;;;;;19.40;53.80;;;;;;5032412;28;1405;-66
2021/03/26 01:30:35;;;;;;;;;;;19.40;53.80;;;;;;5033035;28;1368;-67
2021/03/26 01:33:00;;;;;;;;;;;19.40;53.80;;;;;;5015076;28;1121;-66
2021/03/26 01:35:26;;;;;;;;;;;19.40;53.90;;;;;;4998631;28;1910;-66
2021/03/26 01:37:51;;;;;;;;;;;19.30;53.80;;;;;;5032133;28;1423;-67
2021/03/26 01:40:19;;;;;;;;;;;19.30;53.90;;;;;;5032749;28;1363;-66
2021/03/26 01:42:44;;;;;;;;;;;19.30;53.80;;;;;;5032742;28;1404;-66
2021/03/26 01:45:11;;;;;;;;;;;19.30;53.90;;;;;;5015165;28;1268;-67
2021/03/26 01:47:36;;;;;;;;;;;19.30;53.90;;;;;;5032209;28;1436;-66
2021/03/26 01:50:03;;;;;;;;;;;19.30;53.90;;;;;;5032741;28;1340;-67
2021/03/26 01:52:29;;;;;;;;;;;19.30;53.90;;;;;;5031071;28;1197;-66
2021/03/26 01:54:55;;;;;;;;;;;19.30;53.90;;;;;;5032904;28;1390;-66
2021/03/26 01:57:20;;;;;;;;;;;19.30;53.90;;;;;;5031974;28;1918;-66
2021/03/26 01:59:46;;;;;;;;;;;19.30;53.90;;;;;;5014983;28;1197;-68
2021/03/26 02:02:17;;;;;;;;;;;19.30;53.90;;;;;;5032417;28;1182;-66
2021/03/26 02:04:44;;;;;;;;;;;19.30;53.90;;;;;;4999096;28;1256;-67
2021/03/26 02:07:10;;;;;;;;;;;19.30;53.90;;;;;;5014111;28;1216;-69
2021/03/26 02:09:36;;;;;;;;;;;19.30;53.90;;;;;;5014872;28;1460;-66
2021/03/26 02:12:09;;;;;;;;;;;19.30;53.90;;;;;;5014807;28;1326;-67
2021/03/26 02:14:38;;;;;;;;;;;19.30;54.00;;;;;;5014699;28;1402;-67
2021/03/26 02:17:03;;;;;;;;;;;19.30;54.00;;;;;;5014495;28;1914;-68
2021/03/26 02:19:36;;;;;;;;;;;19.30;54.00;;;;;;5014560;28;1264;-67
2021/03/26 02:22:02;;;;;;;;;;;19.30;54.00;;;;;;5014643;28;1077;-68
2021/03/26 02:24:27;;;;;;;;;;;19.30;54.00;;;;;;5014819;28;1061;-68
2021/03/26 02:27:01;;;;;;;;;;;19.30;54.00;;;;;;5014603;28;1279;-68
2021/03/26 02:29:27;;;;;;;;;;;19.30;54.10;;;;;;5018002;28;1262;-68
2021/03/26 02:31:53;;;;;;;;;;;19.30;54.10;;;;;;5036060;28;1277;-68
2021/03/26 02:34:19;;;;;;;;;;;19.30;54.10;;;;;;5018090;28;1141;-68
2021/03/26 02:36:46;;;;;;;;;;;19.30;54.10;;;;;;5018201;28;1898;-68
2021/03/26 02:39:13;;;;;;;;;;;19.20;54.10;;;;;;5017721;28;1144;-68
2021/03/26 02:41:40;;;;;;;;;;;19.30;54.10;;;;;;5018232;28;1355;-68
2021/03/26 02:44:08;;;;;;;;;;;19.20;54.10;;;;;;5018106;28;1372;-67
2021/03/26 02:46:54;;;;;;;;;;;19.20;54.10;;;;;;5035574;28;1296;-67
2021/03/26 02:49:40;;;;;;;;;;;19.20;54.10;;;;;;5017709;28;1313;-68
2021/03/26 02:52:27;;;;;;;;;;;19.20;54.10;;;;;;5017925;28;1109;-68
2021/03/26 02:55:00;;;;;;;;;;;19.20;54.10;;;;;;5018014;28;1285;-68
2021/03/26 02:57:36;;;;;;;;;;;19.20;54.20;;;;;;5017331;28;1961;-68
2021/03/26 03:00:04;;;;;;;;;;;19.20;54.20;;;;;;5018155;28;1364;-68
2021/03/26 03:02:29;;;;;;;;;;;19.20;54.20;;;;;;5035475;28;1089;-68
2021/03/26 03:04:58;;;;;;;;;;;19.20;54.20;;;;;;5017775;28;1109;-68
2021/03/26 03:07:24;;;;;;;;;;;19.20;54.20;;;;;;5017054;28;1339;-68
2021/03/26 03:09:51;;;;;;;;;;;19.20;54.20;;;;;;5017590;28;1255;-68
2021/03/26 03:12:18;;;;;;;;;;;19.20;54.20;;;;;;5017577;28;1253;-68
2021/03/26 03:14:46;;;;;;;;;;;19.20;54.20;;;;;;5017624;28;1361;-68
2021/03/26 03:17:11;;;;;;;;;;;19.20;54.30;;;;;;5017108;28;1976;-67
2021/03/26 03:19:45;;;;;;;;;;;19.20;54.20;;;;;;5035170;28;1191;-68
2021/03/26 03:22:29;;;;;;;;;;;19.20;54.20;;;;;;5034870;28;1326;-67
2021/03/26 03:24:56;;;;;;;;;;;19.20;54.30;;;;;;5035203;28;1164;-68
2021/03/26 03:27:21;;;;;;;;;;;19.20;54.30;;;;;;5016957;28;1171;-67
2021/03/26 03:29:51;;;;;;;;;;;19.20;54.30;;;;;;5035597;28;1299;-68
2021/03/26 03:32:23;;;;;;;;;;;19.20;54.30;;;;;;5017097;28;1089;-68
2021/03/26 03:34:50;;;;;;;;;;;19.20;54.40;;;;;;5034848;28;1081;-67
2021/03/26 03:37:17;;;;;;;;;;;19.20;54.30;;;;;;5016536;28;1965;-67
2021/03/26 03:39:53;;;;;;;;;;;19.20;54.30;;;;;;5016827;28;1073;-67
2021/03/26 03:42:38;;;;;;;;;;;19.10;54.30;;;;;;5017003;28;1400;-67
2021/03/26 03:45:09;;;;;;;;;;;19.10;54.30;;;;;;5034447;28;1478;-67
2021/03/26 03:47:38;;;;;;;;;;;19.10;54.30;;;;;;5034220;28;1260;-68
2021/03/26 03:50:09;;;;;;;;;;;19.10;54.30;;;;;;5017020;28;1089;-68
2021/03/26 03:52:38;;;;;;;;;;;19.10;54.30;;;;;;5034474;28;1160;-67
2021/03/26 03:55:07;;;;;;;;;;;19.10;54.40;;;;;;5017023;28;1287;-68
2021/03/26 03:57:33;;;;;;;;;;;19.10;54.40;;;;;;5016150;28;1894;-68
2021/03/26 03:59:59;;;;;;;;;;;19.10;54.40;;;;;;5016743;28;1504;-68
2021/03/26 04:02:25;;;;;;;;;;;19.10;54.40;;;;;;5016620;28;1322;-67
2021/03/26 04:04:55;;;;;;;;;;;19.10;54.40;;;;;;5034349;28;1491;-67
2021/03/26 04:07:22;;;;;;;;;;;19.10;54.40;;;;;;5016140;28;1270;-68
2021/03/26 04:09:48;;;;;;;;;;;19.10;54.30;;;;;;5016534;28;1085;-67
2021/03/26 04:12:16;;;;;;;;;;;19.10;54.10;;;;;;5000207;28;1291;-68
2021/03/26 04:15:01;;;;;;;;;;;19.20;54.20;;;;;;5033998;28;1281;-69
2021/03/26 04:17:35;;;;;;;;;;;19.20;54.10;;;;;;5015251;28;1902;-68
2021/03/26 04:20:04;;;;;;;;;;;19.30;54.00;;;;;;5016452;28;1268;-68
2021/03/26 04:22:31;;;;;;;;;;;19.40;53.90;;;;;;5015874;28;1284;-67
2021/03/26 04:25:04;;;;;;;;;;;19.50;53.80;;;;;;5016500;28;1263;-67
2021/03/26 04:27:33;;;;;;;;;;;19.50;53.60;;;;;;5015594;28;1101;-68
2021/03/26 04:30:00;;;;;;;;;;;19.60;53.40;;;;;;5016392;28;1293;-68
2021/03/26 04:32:25;;;;;;;;;;;19.70;53.20;;;;;;5016028;28;1137;-68
2021/03/26 04:34:51;;;;;;;;;;;19.80;53.00;;;;;;5015996;28;1319;-67
2021/03/26 04:37:18;;;;;;;;;;;19.90;52.80;;;;;;5015569;28;1994;-67
2021/03/26 04:39:44;;;;;;;;;;;20.00;52.70;;;;;;4999587;28;1650;-68
2021/03/26 04:42:13;;;;;;;;;;;20.10;52.50;;;;;;5034119;28;1167;-68
2021/03/26 04:44:41;;;;;;;;;;;20.10;52.30;;;;;;5015884;28;1321;-68
2021/03/26 04:47:18;;;;;;;;;;;20.20;52.80;;;;;;5015609;28;1424;-68
2021/03/26 04:49:45;;;;;;;;;;;20.30;52.10;;;;;;5033126;28;1068;-68
2021/03/26 04:52:14;;;;;;;;;;;20.30;51.90;;;;;;5015434;28;1322;-68
2021/03/26 04:54:45;;;;;;;;;;;20.30;51.80;;;;;;5015725;28;1286;-68
2021/03/26 04:57:12;;;;;;;;;;;20.40;51.80;;;;;;5015335;28;1894;-67
2021/03/26 04:59:39;;;;;;;;;;;20.40;51.70;;;;;;5015610;28;1316;-68
2021/03/26 05:02:05;;;;;;;;;;;20.50;51.60;;;;;;5015235;28;1445;-68
2021/03/26 05:04:31;;;;;;;;;;;20.50;51.50;;;;;;5015355;28;1254;-68
2021/03/26 05:07:00;;;;;;;;;;;20.50;51.50;;;;;;4999122;28;1883;-68
2021/03/26 05:09:28;;;;;;;;;;;20.60;51.50;;;;;;5015280;28;1354;-66
2021/03/26 05:11:55;;;;;;;;;;;20.60;51.40;;;;;;5015401;28;1160;-66
2021/03/26 05:14:22;;;;;;;;;;;20.60;51.30;;;;;;5015450;28;1073;-67
2021/03/26 05:16:52;;;;;;;;;;;20.70;51.90;;;;;;5015186;28;1910;-67
2021/03/26 05:19:30;;;;;;;;;;;20.70;51.30;;;;;;5015086;28;1302;-67
2021/03/26 05:22:14;;;;;;;;;;;20.70;51.30;;;;;;5033071;28;1328;-66
2021/03/26 05:24:40;;;;;;;;;;;20.70;51.20;;;;;;5032831;28;1264;-66
2021/03/26 05:27:07;;;;;;;;;;;20.80;51.20;;;;;;5014903;28;1331;-67
2021/03/26 05:29:33;;;;;;;;;;;20.80;51.20;;;;;;5015376;28;1133;-67
2021/03/26 05:32:10;;;;;;;;;;;20.80;51.20;;;;;;5033141;28;1088;-66
2021/03/26 05:34:54;;;;;;;;;;;20.80;51.10;;;;;;5032881;28;1497;-66
2021/03/26 05:37:19;;;;;;;;;;;20.80;51.10;;;;;;5032518;28;1902;-67
2021/03/26 05:39:45;;;;;;;;;;;20.80;51.10;;;;;;5015150;28;1344;-66
2021/03/26 05:42:19;;;;;;;;;;;20.80;51.00;;;;;;5015244;28;1288;-66
2021/03/26 05:44:47;;;;;;;;;;;20.90;51.00;;;;;;5015207;28;1368;-66
2021/03/26 05:47:19;;;;;;;;;;;20.90;51.00;;;;;;5014869;28;1357;-66
2021/03/26 05:49:58;;;;;;;;;;;20.90;51.00;;;;;;5032745;28;1140;-66
2021/03/26 05:52:24;;;;;;;;;;;20.90;51.00;;;;;;5015135;28;1473;-66
2021/03/26 05:55:18;;;;;;;;;;;20.90;51.00;;;;;;5032557;28;1248;-66
2021/03/26 05:57:57;;;;;;;;;;;20.90;50.90;;;;;;5009487;28;1907;-66
2021/03/26 06:00:41;;;;;;;;;;;20.90;51.00;;;;;;5015035;28;1306;-66
2021/03/26 06:03:25;;;;;;;;;;;21.00;51.00;;;;;;5034060;28;1324;-66
2021/03/26 06:06:01;;;;;;;;;;;21.00;50.90;;;;;;5036358;28;1375;-66
2021/03/26 06:08:34;;;;;;;;;;;21.00;50.90;;;;;;5018517;28;1348;-66
2021/03/26 06:11:20;;;;;;;;;;;21.00;50.90;;;;;;5018578;28;1282;-67
2021/03/26 06:13:50;;;;;;;;;;;21.00;50.90;;;;;;5015226;28;1247;-66
2021/03/26 06:16:29;;;;;;;;;;;21.00;50.80;;;;;;5018613;28;1979;-67
2021/03/26 06:19:04;;;;;;;;;;;21.00;50.80;;;;;;5018661;28;1155;-67
2021/03/26 06:21:48;;;;;;;;;;;21.10;50.90;;;;;;5018531;28;1359;-66
2021/03/26 06:24:36;;;;;;;;;;;21.10;50.80;;;;;;5036132;28;1178;-66
2021/03/26 06:27:06;;;;;;;;;;;21.10;50.80;;;;;;5018463;28;1210;-67
2021/03/26 06:29:34;;;;;;;;;;;21.10;50.90;;;;;;5018051;28;1116;-66
2021/03/26 06:32:13;;;;;;;;;;;21.10;50.90;;;;;;5035976;28;1061;-66
2021/03/26 06:34:41;;;;;;;;;;;21.10;50.80;;;;;;5018167;28;1207;-64
2021/03/26 06:37:28;;;;;;;;;;;21.10;50.90;;;;;;5023051;28;1902;-64
2021/03/26 06:40:03;;;;;;;;;;;21.10;50.90;;;;;;5032129;28;1277;-64
2021/03/26 06:42:35;;;;;;;;;;;21.10;51.00;;;;;;5042940;28;1200;-64
2021/03/26 06:45:22;;;;;;;;;;;21.10;51.00;;;;;;5034731;28;1289;-63
2021/03/26 06:47:50;;;;;;;;;;;21.00;51.00;;;;;;5017632;28;1307;-64
2021/03/26 06:50:34;;;;;;;;;;;21.00;51.00;;;;;;5017892;28;1345;-64
2021/03/26 06:53:17;;;;;;;;;;;21.00;51.10;;;;;;5017856;28;1525;-63
2021/03/26 06:56:02;;;;;;;;;;;21.00;51.10;;;;;;5017785;28;1898;-63
2021/03/26 06:58:27;;;;;;;;;;;21.00;51.20;;;;;;5035125;28;1342;-63
2021/03/26 07:01:05;;;;;;;;;;;20.90;51.20;;;;;;5035228;28;1438;-63
2021/03/26 07:03:36;;;;;;;;;;;20.90;51.20;;;;;;5035302;28;1305;-64
2021/03/26 07:06:02;;;;;;;;;;;20.90;51.30;;;;;;5061295;22;1924;-67
2021/03/26 07:08:46;;;;;;;;;;;20.90;51.40;;;;;;5054738;28;925;-67
2021/03/26 07:11:22;;;;;;;;;;;20.80;50.80;;;;;;5058552;28;950;-68
2021/03/26 07:14:11;;;;;;;;;;;20.80;49.90;;;;;;5035375;28;1268;-68
2021/03/26 07:16:45;;;;;;;;;;;20.70;49.80;;;;;;4997488;28;1906;-68
2021/03/26 07:19:30;;;;;;;;;;;20.70;50.10;;;;;;5004445;28;1115;-67
2021/03/26 07:22:12;;;;;;;;;;;20.70;50.30;;;;;;5023954;28;1293;-67
2021/03/26 07:24:56;;;;;;;;;;;20.70;50.40;;;;;;5013577;28;1137;-67
2021/03/26 07:27:28;;;;;;;;;;;20.60;50.50;;;;;;5010547;28;1308;-67
2021/03/26 07:30:12;;;;;;;;;;;20.60;50.70;;;;;;5021358;28;1398;-67
2021/03/26 07:32:51;;;;;;;;;;;20.60;50.70;;;;;;5035186;28;1320;-67
2021/03/26 07:35:33;;;;;;;;;;;20.60;50.90;;;;;;5013836;28;1371;-67
2021/03/26 07:38:01;;;;;;;;;;;20.60;50.90;;;;;;5013619;28;1910;-66
2021/03/26 07:40:44;;;;;;;;;;;20.60;51.00;;;;;;5029543;28;1308;-66
2021/03/26 07:43:33;;;;;;;;;;;20.60;51.10;;;;;;5026567;28;1149;-67
2021/03/26 07:46:17;;;;;;;;;;;20.60;51.20;;;;;;5010890;28;1332;-68
2021/03/26 07:48:52;;;;;;;;;;;20.50;51.20;;;;;;5033995;28;1455;-68
2021/03/26 07:51:20;;;;;;;;;;;20.50;51.90;;;;;;5034793;28;1378;-69
2021/03/26 07:53:45;;;;;;;;;;;20.50;51.40;;;;;;5016811;28;1397;-68
2021/03/26 07:56:11;;;;;;;;;;;20.50;51.40;;;;;;5034549;28;1898;-68
2021/03/26 07:58:46;;;;;;;;;;;20.50;51.50;;;;;;5034085;28;1293;-68
2021/03/26 08:01:14;;;;;;;;;;;20.50;51.50;;;;;;5032957;28;1380;-68
2021/03/26 08:03:49;;;;;;;;;;;20.50;51.60;;;;;;5032998;28;1308;-68
2021/03/26 08:06:33;;;;;;;;;;;20.40;51.60;;;;;;5027246;28;1528;-67
2021/03/26 08:09:09;;;;;;;;;;;20.40;52.20;;;;;;5009114;28;1509;-67
2021/03/26 08:11:48;;;;;;;;;;;20.40;52.20;;;;;;5007720;28;1162;-67
2021/03/26 08:14:33;;;;;;;;;;;20.40;53.20;;;;;;5007175;28;1405;-67
2021/03/26 08:17:07;;;;;;;;;;;20.40;53.40;;;;;;5027165;28;1983;-66
2021/03/26 08:19:36;;;;;;;;;;;20.40;53.50;;;;;;5031732;28;1198;-67
2021/03/26 08:22:21;;;;;;;;;;;20.50;53.60;;;;;;5013035;28;1324;-68
2021/03/26 08:25:05;;;;;;;;;;;20.40;53.70;;;;;;5031303;28;1915;-66
2021/03/26 08:27:36;;;;;;;;;;;20.40;53.60;;;;;;5031939;28;1346;-68
2021/03/26 08:30:10;;;;;;;;;;;20.40;53.60;;;;;;5033326;28;1215;-68
2021/03/26 08:32:55;;;;;;;;;;;20.40;53.60;;;;;;5033453;28;1266;-68
2021/03/26 08:35:20;;;;;;;;;;;20.40;53.70;;;;;;5026264;28;1361;-67
2021/03/26 08:38:04;;;;;;;;;;;20.40;53.80;;;;;;5032984;28;1965;-67
2021/03/26 08:40:53;;;;;;;;;;;20.40;53.80;;;;;;5033241;28;1112;-67
2021/03/26 08:43:18;;;;;;;;;;;20.40;53.80;;;;;;5014206;28;1291;-67
2021/03/26 08:45:45;;;;;;;;;;;20.40;53.80;;;;;;5032117;28;1330;-70
2021/03/26 08:48:30;;;;;;;;;;;20.40;53.80;;;;;;5023731;28;910;-70
2021/03/26 08:51:01;;;;;;;;;;;20.40;53.90;;;;;;5026675;28;1685;-66
2021/03/26 08:53:45;;;;;;;;;;;20.40;54.00;;;;;;5032494;28;1171;-67
2021/03/26 08:56:13;;;;;;;;;;;20.40;54.00;;;;;;5032830;28;1898;-67
2021/03/26 08:58:57;;;;;;;;;;;20.40;54.30;;;;;;5032076;28;1378;-66
2021/03/26 09:01:41;;;;;;;;;;;20.40;54.30;;;;;;5033183;28;1081;-67
2021/03/26 09:04:12;;;;;;;;;;;20.40;54.30;;;;;;5033227;28;1069;-64
2021/03/26 09:06:52;;;;;;;;;;;20.30;54.30;;;;;;5015103;28;1373;-63
2021/03/26 09:09:27;;;;;;;;;;;20.30;54.40;;;;;;5032933;28;1280;-65
2021/03/26 09:12:13;;;;;;;;;;;20.30;54.40;;;;;;4995590;28;1248;-65
2021/03/26 09:14:41;;;;;;;;;;;20.30;54.40;;;;;;5011579;28;1393;-65
2021/03/26 09:17:23;;;;;;;;;;;20.30;54.50;;;;;;5032529;28;1902;-66
2021/03/26 09:19:51;;;;;;;;;;;20.30;54.50;;;;;;5032160;28;2172;-65
2021/03/26 09:22:27;;;;;;;;;;;20.30;54.60;;;;;;5032557;28;1116;-68
2021/03/26 09:25:02;;;;;;;;;;;20.30;54.70;;;;;;5014662;28;1415;-66
2021/03/26 09:27:29;;;;;;;;;;;20.30;54.70;;;;;;5032115;28;1259;-65
2021/03/26 09:30:05;;;;;;;;;;;20.30;54.80;;;;;;5015101;28;1450;-67
2021/03/26 09:32:37;;;;;;;;;;;20.30;54.80;;;;;;5031518;28;1414;-69
2021/03/26 09:35:11;;;;;;;;;;;20.30;54.90;;;;;;5032357;28;1329;-67
2021/03/26 09:37:39;;;;;;;;;;;20.30;54.80;;;;;;5030852;28;1906;-67
2021/03/26 09:40:09;;;;;;;;;;;20.30;54.90;;;;;;5031282;28;1003;-66
2021/03/26 09:42:38;;;;;;;;;;;20.30;55.00;;;;;;5031771;28;1400;-68
2021/03/26 09:45:09;;;;;;;;;;;20.30;55.60;;;;;;5032753;28;1332;-68
2021/03/26 09:47:35;;;;;;;;;;;20.30;55.00;;;;;;5030874;28;1336;-68
2021/03/26 09:50:04;;;;;;;;;;;20.30;55.10;;;;;;5031308;28;1383;-67
2021/03/26 09:52:30;;;;;;;;;;;20.30;55.20;;;;;;5031515;28;1324;-68
2021/03/26 09:55:06;;;;;;;;;;;20.20;55.10;;;;;;4999606;28;2013;-68
2021/03/26 09:57:43;;;;;;;;;;;20.30;55.20;;;;;;5025746;28;1959;-67
2021/03/26 10:00:09;;;;;;;;;;;20.20;55.20;;;;;;4997803;28;1372;-67
2021/03/26 10:02:38;;;;;;;;;;;20.30;55.30;;;;;;5032791;28;1065;-68
2021/03/26 10:05:06;;;;;;;;;;;20.30;55.30;;;;;;5031396;28;1388;-68
2021/03/26 10:07:40;;;;;;;;;;;20.30;55.30;;;;;;5031041;28;1285;-68
2021/03/26 10:13:09;;;;;;;;;;;20.20;55.30;;;;;;5032139;28;1031;-68
2021/03/26 10:15:36;;;;;;;;;;;20.20;55.30;;;;;;5031933;28;1330;-67
2021/03/26 10:18:15;;;;;;;;;;;20.20;55.30;;;;;;5011166;28;1906;-68
2021/03/26 10:20:48;;;;;;;;;;;20.20;55.40;;;;;;5007436;28;1173;-68
2021/03/26 10:23:16;;;;;;;;;;;20.20;55.40;;;;;;4994868;28;1553;-67
2021/03/26 10:25:44;;;;;;;;;;;20.20;55.40;;;;;;5007429;28;1612;-68
2021/03/26 10:28:16;;;;;;;;;;;20.20;55.40;;;;;;5014361;28;1065;-68
2021/03/26 10:30:45;;;;;;;;;;;20.20;55.40;;;;;;5014583;28;1282;-67
2021/03/26 10:33:11;;;;;;;;;;;20.20;56.00;;;;;;5014597;28;1236;-68
2021/03/26 10:35:37;;;;;;;;;;;20.20;55.50;;;;;;5014775;28;1412;-68
2021/03/26 10:38:13;;;;;;;;;;;20.20;55.60;;;;;;5014039;28;1968;-68
2021/03/26 10:40:49;;;;;;;;;;;20.20;55.80;;;;;;4997529;28;1453;-68
2021/03/26 10:43:18;;;;;;;;;;;20.20;55.70;;;;;;5030825;28;1281;-68
2021/03/26 10:46:03;;;;;;;;;;;20.20;55.70;;;;;;5030786;28;1405;-68
2021/03/26 10:48:42;;;;;;;;;;;20.20;55.70;;;;;;5032282;28;1327;-68
2021/03/26 10:51:27;;;;;;;;;;;20.20;55.80;;;;;;5034418;28;1278;-68
2021/03/26 10:53:55;;;;;;;;;;;20.20;55.90;;;;;;5035614;28;1316;-68
2021/03/26 10:56:27;;;;;;;;;;;20.20;56.00;;;;;;5017295;28;1890;-70
2021/03/26 10:58:56;;;;;;;;;;;20.20;55.90;;;;;;5034178;28;1886;-68
2021/03/26 11:01:22;;;;;;;;;;;20.20;55.90;;;;;;5017673;28;1206;-67
2021/03/26 11:03:52;;;;;;;;;;;20.20;55.80;;;;;;5017215;28;1353;-67
2021/03/26 11:06:24;;;;;;;;;;;20.10;55.70;;;;;;5008278;28;2141;-68
2021/03/26 11:08:50;;;;;;;;;;;20.20;55.80;;;;;;5011212;28;1548;-67
2021/03/26 11:11:32;;;;;;;;;;;20.10;55.80;;;;;;5016753;28;1246;-65
2021/03/26 11:14:16;;;;;;;;;;;20.10;55.90;;;;;;5033887;28;1363;-67
2021/03/26 11:16:49;;;;;;;;;;;20.20;55.90;;;;;;5034984;28;1902;-67
2021/03/26 11:19:23;;;;;;;;;;;20.10;56.00;;;;;;5032471;28;1404;-68
2021/03/26 11:21:49;;;;;;;;;;;20.10;56.00;;;;;;5017441;28;1140;-68
2021/03/26 11:24:14;;;;;;;;;;;20.10;56.30;;;;;;5015519;28;1336;-67
2021/03/26 11:26:42;;;;;;;;;;;20.10;56.30;;;;;;5027309;28;1396;-67
2021/03/26 11:29:19;;;;;;;;;;;20.10;56.40;;;;;;5028034;28;1273;-67
2021/03/26 11:31:48;;;;;;;;;;;20.10;56.40;;;;;;5033584;28;1368;-66
2021/03/26 11:34:16;;;;;;;;;;;20.10;56.50;;;;;;5034821;28;1140;-66
2021/03/26 11:36:47;;;;;;;;;;;20.10;56.50;;;;;;5034912;28;1902;-66
2021/03/26 11:39:12;;;;;;;;;;;20.10;56.60;;;;;;5034413;28;1061;-67
2021/03/26 11:41:44;;;;;;;;;;;20.10;56.40;;;;;;5034716;28;1355;-66
2021/03/26 11:44:11;;;;;;;;;;;20.10;56.40;;;;;;5034303;28;1089;-69
2021/03/26 11:46:43;;;;;;;;;;;20.10;56.40;;;;;;5033458;28;1407;-68
2021/03/26 11:49:16;;;;;;;;;;;20.10;56.50;;;;;;5014108;28;1128;-67
2021/03/26 11:52:02;;;;;;;;;;;20.10;56.60;;;;;;5024435;28;1839;-67
2021/03/26 11:54:29;;;;;;;;;;;20.10;56.50;;;;;;5028827;28;1871;-69
2021/03/26 11:57:07;;;;;;;;;;;20.10;56.50;;;;;;5016465;28;1890;-68
2021/03/26 11:59:53;;;;;;;;;;;20.10;56.50;;;;;;5033092;28;1261;-67
2021/03/26 12:02:24;;;;;;;;;;;20.10;56.40;;;;;;5016742;28;1318;-67
2021/03/26 12:04:53;;;;;;;;;;;20.10;56.50;;;;;;5034183;28;1349;-67
2021/03/26 12:07:21;;;;;;;;;;;20.10;56.50;;;;;;5033776;28;1268;-67
2021/03/26 12:09:53;;;;;;;;;;;20.10;56.60;;;;;;5032960;28;1371;-66
2021/03/26 12:12:23;;;;;;;;;;;20.10;56.50;;;;;;5016555;28;1319;-66
2021/03/26 12:14:57;;;;;;;;;;;20.10;56.70;;;;;;5033066;28;1332;-66
2021/03/26 12:17:33;;;;;;;;;;;20.10;56.70;;;;;;5032579;28;1960;-66
2021/03/26 12:19:59;;;;;;;;;;;20.10;56.70;;;;;;5032673;28;1296;-66
2021/03/26 12:22:30;;;;;;;;;;;20.10;56.80;;;;;;5033935;28;1302;-66
2021/03/26 12:24:56;;;;;;;;;;;20.10;56.70;;;;;;5032347;28;1302;-66
2021/03/26 12:27:40;;;;;;;;;;;20.10;56.80;;;;;;5015455;28;1356;-66
2021/03/26 12:30:05;;;;;;;;;;;20.10;56.80;;;;;;5033250;28;1378;-67
2021/03/26 12:32:34;;;;;;;;;;;20.10;56.80;;;;;;5032874;28;1792;-66
2021/03/26 12:35:02;;;;;;;;;;;20.10;56.80;;;;;;5032337;28;1793;-66
2021/03/26 12:37:46;;;;;;;;;;;20.10;56.80;;;;;;5030780;28;1969;-67
2021/03/26 12:40:30;;;;;;;;;;;20.10;56.90;;;;;;5033048;28;1920;-67
2021/03/26 12:43:01;;;;;;;;;;;20.10;56.90;;;;;;5033475;28;1184;-67
2021/03/26 12:45:27;;;;;;;;;;;20.10;57.00;;;;;;5023799;28;1378;-67
2021/03/26 12:48:03;;;;;;;;;;;20.10;57.10;;;;;;5019838;28;1288;-65
2021/03/26 12:50:36;;;;;;;;;;;20.10;57.10;;;;;;5030762;28;1312;-65
2021/03/26 12:53:07;;;;;;;;;;;20.10;57.00;;;;;;5015526;28;1403;-65
2021/03/26 12:55:35;;;;;;;;;;;20.10;56.90;;;;;;5032011;28;1350;-66
2021/03/26 12:58:00;;;;;;;;;;;20.10;57.00;;;;;;5030542;28;1898;-66
2021/03/26 13:00:37;;;;;;;;;;;20.10;57.20;;;;;;5030106;28;1360;-65
2021/03/26 13:03:05;;;;;;;;;;;20.10;56.90;;;;;;4992661;28;1282;-66
2021/03/26 13:05:30;;;;;;;;;;;20.20;56.70;;;;;;5015179;28;1375;-66
2021/03/26 13:08:12;;;;;;;;;;;20.20;54.90;;;;;;5033572;28;1393;-66
2021/03/26 13:10:57;;;;;;;;;;;20.10;53.50;;;;;;5015382;28;1313;-67
2021/03/26 13:13:31;;;;;;;;;;;20.10;52.80;;;;;;5032740;28;1344;-67
2021/03/26 13:16:05;;;;;;;;;;;20.10;52.40;;;;;;5032370;28;1910;-67
2021/03/26 13:18:31;;;;;;;;;;;20.10;52.30;;;;;;5024508;28;1240;-67
2021/03/26 13:20:57;;;;;;;;;;;20.10;52.00;;;;;;5023490;28;1217;-67
2021/03/26 13:23:24;;;;;;;;;;;20.10;51.70;;;;;;5003790;28;1081;-67
2021/03/26 13:25:50;;;;;;;;;;;20.10;51.50;;;;;;5005980;28;1286;-67
2021/03/26 13:28:22;;;;;;;;;;;20.10;51.50;;;;;;5014840;28;1297;-67
2021/03/26 13:30:58;;;;;;;;;;;20.10;51.30;;;;;;5015371;28;1296;-67
2021/03/26 13:33:27;;;;;;;;;;;20.10;51.10;;;;;;5008053;28;1910;-67
2021/03/26 13:35:59;;;;;;;;;;;20.10;51.00;;;;;;5028406;28;1389;-67
2021/03/26 13:38:28;;;;;;;;;;;20.10;50.90;;;;;;5009882;28;1193;-67
2021/03/26 13:40:53;;;;;;;;;;;20.10;50.80;;;;;;5023885;28;1824;-67
2021/03/26 13:43:39;;;;;;;;;;;20.10;50.70;;;;;;5012579;28;1401;-67
2021/03/26 13:46:05;;;;;;;;;;;20.10;50.50;;;;;;5031062;28;1560;-67
2021/03/26 13:48:39;;;;;;;;;;;20.10;50.40;;;;;;5012611;28;1523;-67
2021/03/26 13:51:06;;;;;;;;;;;20.20;50.30;;;;;;5019427;28;2321;-67
2021/03/26 13:53:34;;;;;;;;;;;20.20;50.20;;;;;;5031621;28;1515;-67
2021/03/26 13:56:08;;;;;;;;;;;20.20;50.10;;;;;;5031425;28;1890;-67
2021/03/26 13:58:34;;;;;;;;;;;20.20;50.00;;;;;;5012780;28;1855;-70
2021/03/26 14:01:12;;;;;;;;;;;20.20;50.00;;;;;;4997012;28;1812;-69
2021/03/26 14:03:49;;;;;;;;;;;20.20;50.10;;;;;;5031392;28;1058;-69
2021/03/26 14:06:23;;;;;;;;;;;20.20;50.00;;;;;;5024374;28;1280;-69
2021/03/26 14:08:51;;;;;;;;;;;20.20;50.00;;;;;;5031188;28;1102;-70
2021/03/26 14:11:17;;;;;;;;;;;20.20;49.90;;;;;;5031362;28;1247;-69
2021/03/26 14:14:01;;;;;;;;;;;20.20;49.90;;;;;;5031539;28;1294;-69
2021/03/26 14:16:39;;;;;;;;;;;20.20;49.90;;;;;;5018235;28;1964;-68
2021/03/26 14:19:12;;;;;;;;;;;20.20;49.90;;;;;;5031286;28;1260;-69
2021/03/26 14:21:38;;;;;;;;;;;20.20;49.80;;;;;;5008456;28;1347;-69
2021/03/26 14:24:08;;;;;;;;;;;20.20;49.90;;;;;;5025392;28;1287;-69
2021/03/26 14:26:36;;;;;;;;;;;20.20;49.90;;;;;;5032750;28;1228;-69
2021/03/26 14:29:14;;;;;;;;;;;20.20;49.90;;;;;;5013709;28;1366;-69
2021/03/26 14:31:43;;;;;;;;;;;20.20;49.80;;;;;;5013691;28;1252;-69
2021/03/26 14:34:13;;;;;;;;;;;20.20;49.80;;;;;;5030854;28;1054;-69
2021/03/26 14:36:49;;;;;;;;;;;20.20;49.80;;;;;;5008623;28;1902;-69
2021/03/26 14:39:34;;;;;;;;;;;20.20;49.70;;;;;;5012727;28;1233;-70
2021/03/26 14:42:03;;;;;;;;;;;20.20;49.70;;;;;;5011644;28;1191;-69
2021/03/26 14:44:30;;;;;;;;;;;20.20;49.70;;;;;;5011187;28;1267;-69
2021/03/26 14:46:57;;;;;;;;;;;20.20;49.70;;;;;;5014792;28;1314;-71
2021/03/26 14:49:25;;;;;;;;;;;20.20;49.60;;;;;;5012304;28;1331;-71
2021/03/26 14:51:52;;;;;;;;;;;20.20;49.60;;;;;;5028472;28;1249;-70
2021/03/26 14:54:23;;;;;;;;;;;20.20;49.60;;;;;;5013602;28;1323;-72
2021/03/26 14:57:00;;;;;;;;;;;20.20;49.60;;;;;;5030405;28;1965;-70
2021/03/26 14:59:29;;;;;;;;;;;20.20;49.50;;;;;;5012231;28;1292;-71